Davie, FL (33331)

11:48 AM EST on March 06, 2015 (GMT -0500)
Weston-Emerald Estates | Change Station
CLOSE
Current Station
Personal Weather Station
Location: Fort Lauderdale, FL
Elevation: 16 ft
Nearby Weather Stations

Elev 16 ft 26.07 °N, 80.37 °W | Updated 16 seconds ago

Mostly Cloudy
Mostly Cloudy
86.0 °F
Feels Like 96 °F
N
2.7
Wind Variable Wind from South
Gusts 5.1 mph

Today
High -- | Low -- °F
--% Chance of Precip.
Yesterday
High -- | Low -- °F
Precip. -- in
6:40 AM 6:25 PM
Full, 99% visible
Pressure 30.20 in
Visibility 10.0 miles
Clouds Few 2500 ft
Heat Index 96 °F
Dew Point 76 °F
Humidity 72%
Rainfall in
Snow Depth Not available.
UV 9 out of 12
Pollen 9.40 out of 12
Air Quality Not available.
Flu Activity Not available.
METAR KOPF 061553Z 13004KT 10SM FEW025 28/21 A3020 RMK AO2 SLP227 T02780206

More Conditions Fewer Conditions

Pressure 30.20 in
Visibility 10.0 miles
Clouds Few 2500 ft
Heat Index 96 °F
Dew Point 76 °F
Humidity 72%
Rainfall in
Snow Depth Not available.
UV 9 out of 12
Pollen 9.40 out of 12
Air Quality Not available.
Flu Activity Not available.
METAR KOPF 061553Z 13004KT 10SM FEW025 28/21 A3020 RMK AO2 SLP227 T02780206

More Conditions Fewer Conditions

Nowcast | as of 11:47 am EST on March 6, 2015

Scattered showers were developing just west of the coast, slowly moving west northwest. Expect a quick quarter inch of rain, but higher amounts will be possible if the showers continue their slow movement.

×

10-Day Weather Forecast

Almanac

Astronomy

Mar. 06, 2015 Rise Set
Actual Time
Civil Twilight
Nautical Twilight
Astronomical Twilight
Moon
Length of Visible Light
Length of Day
Tomorrow will be .
, % of the Moon is Illuminated

Today's Extremes

State Highs State Lows

Community

WunderPhotos

Upload Photos

1,803,336 photos uploaded!

WunderBlogs® & News

Nearby

Air Quality

  Air Quality AQ Index Pollutant
Not available.

Snow Depth

Station Depth Elevation

Earthquake Activity

City Distance Mag. Time & Date
Minimum magnitude displayed is 2.5.

Coastal Water Temperatures

Place Temperature

Nearby Weather Stations